Time;durP1;ratioP1;P1;durP2;ratioP2;P2;SDS_P1;SDS_P2;PMS_P1;PMS_P2;Temp;Humidity;BMP_temperature;BMP_pressure;BME280_temperature;BME280_humidity;BME280_pressure;Samples;Min_cycle;Max_cycle;Signal;HPM_P1;HPM_P2
2023/08/27 00:01:27;;;;;;;3.60;0.90;;;13.80;99.90;;;;;;5090499;28;20146;-79
2023/08/27 00:03:53;;;;;;;4.72;0.88;;;13.80;99.90;;;;;;5090672;28;20127;-77
2023/08/27 00:06:18;;;;;;;2.15;0.95;;;13.80;99.90;;;;;;5089914;28;20060;-78
2023/08/27 00:08:44;;;;;;;1.70;0.52;;;13.80;99.90;;;;;;5090512;28;20115;-79
2023/08/27 00:11:10;;;;;;;2.00;0.52;;;13.80;99.90;;;;;;5090761;28;20105;-78
2023/08/27 00:13:36;;;;;;;2.15;0.57;;;13.80;99.90;;;;;;5090249;28;20024;-78
2023/08/27 00:16:04;;;;;;;1.50;0.52;;;13.90;99.90;;;;;;5090563;28;20031;-78
2023/08/27 00:18:30;;;;;;;1.70;0.47;;;13.90;99.90;;;;;;5072366;28;20024;-77
2023/08/27 00:20:56;;;;;;;2.08;0.60;;;13.90;99.90;;;;;;5091441;28;20095;-78
2023/08/27 00:23:22;;;;;;;2.35;0.65;;;13.80;99.90;;;;;;5091159;28;20073;-77
2023/08/27 00:25:48;;;;;;;0.68;0.30;;;13.80;99.90;;;;;;5090435;28;20035;-78
2023/08/27 00:28:14;;;;;;;0.77;0.43;;;13.80;99.90;;;;;;5090523;28;20466;-78
2023/08/27 00:30:41;;;;;;;1.38;0.80;;;13.80;99.90;;;;;;5089945;28;20066;-78
2023/08/27 00:33:07;;;;;;;2.42;1.00;;;13.70;99.90;;;;;;5090037;28;20459;-78
2023/08/27 00:35:33;;;;;;;3.83;0.60;;;13.70;99.90;;;;;;5089908;28;20032;-78
2023/08/27 00:38:00;;;;;;;1.95;0.55;;;13.70;99.90;;;;;;5089801;28;20038;-78
2023/08/27 00:40:29;;;;;;;0.80;0.40;;;13.70;99.90;;;;;;5090615;28;20028;-79
2023/08/27 00:42:56;;;;;;;3.90;0.43;;;13.70;99.90;;;;;;5090578;28;20541;-77
2023/08/27 00:45:21;;;;;;;2.97;0.65;;;13.70;99.90;;;;;;5089930;28;20124;-78
2023/08/27 00:47:48;;;;;;;2.25;0.80;;;13.70;99.90;;;;;;5105770;28;20118;-78
2023/08/27 00:50:14;;;;;;;1.08;0.52;;;13.70;99.90;;;;;;5072843;28;20028;-78
2023/08/27 00:52:42;;;;;;;1.45;0.88;;;13.80;99.90;;;;;;5090465;28;20102;-78
2023/08/27 00:55:09;;;;;;;2.45;1.00;;;13.70;99.90;;;;;;5091321;28;20020;-78
2023/08/27 00:57:38;;;;;;;2.83;0.80;;;13.70;99.90;;;;;;5072036;28;20052;-78
2023/08/27 01:00:09;;;;;;;2.15;0.50;;;13.70;99.90;;;;;;5090550;28;20024;-78
2023/08/27 01:02:35;;;;;;;4.72;0.90;;;13.80;99.90;;;;;;5089751;28;20031;-78
2023/08/27 01:05:01;;;;;;;1.27;0.63;;;13.80;99.90;;;;;;5090346;28;20032;-78
2023/08/27 01:07:49;;;;;;;3.63;1.08;;;13.90;99.90;;;;;;5090147;28;20093;-79
2023/08/27 01:10:57;;;;;;;2.03;0.80;;;13.80;99.90;;;;;;5090287;28;20068;-78
2023/08/27 01:13:38;;;;;;;3.97;0.95;;;13.80;99.90;;;;;;5090329;28;20464;-77
2023/08/27 01:16:05;;;;;;;1.73;0.40;;;13.80;99.90;;;;;;5090588;28;20024;-78
2023/08/27 01:18:33;;;;;;;1.50;0.50;;;13.60;99.90;;;;;;5075930;28;20445;-77
2023/08/27 01:20:59;;;;;;;2.42;0.60;;;13.60;99.90;;;;;;5094146;28;20187;-79
2023/08/27 01:23:25;;;;;;;3.28;0.65;;;13.60;99.90;;;;;;5093947;28;20509;-79
2023/08/27 01:25:52;;;;;;;3.40;0.80;;;13.60;99.90;;;;;;5093553;28;20123;-79
2023/08/27 01:28:30;;;;;;;9.07;1.27;;;13.60;99.90;;;;;;5093940;28;20032;-77
2023/08/27 01:31:03;;;;;;;2.40;0.80;;;13.60;99.90;;;;;;5093683;28;20020;-78
2023/08/27 01:33:30;;;;;;;3.85;0.95;;;13.60;99.90;;;;;;5075629;28;20055;-78
2023/08/27 01:35:57;;;;;;;2.88;0.90;;;13.70;99.90;;;;;;5074596;28;20049;-79
2023/08/27 01:38:23;;;;;;;3.08;0.70;;;13.60;99.90;;;;;;5093658;28;20032;-78
2023/08/27 01:40:48;;;;;;;2.13;0.73;;;13.70;99.90;;;;;;5075125;28;20042;-79
2023/08/27 01:43:14;;;;;;;3.50;0.88;;;13.70;99.90;;;;;;5092885;28;20521;-79
2023/08/27 01:45:40;;;;;;;2.90;0.70;;;13.70;99.90;;;;;;5074719;28;20111;-77
2023/08/27 01:48:06;;;;;;;3.30;0.68;;;13.70;99.90;;;;;;5092881;28;20060;-78
2023/08/27 01:50:32;;;;;;;1.90;0.80;;;13.60;99.90;;;;;;5092601;28;20035;-78
2023/08/27 01:52:58;;;;;;;3.03;0.77;;;13.60;99.90;;;;;;5092523;28;20062;-77
2023/08/27 01:55:24;;;;;;;3.17;0.90;;;13.60;99.90;;;;;;5093156;28;20029;-77
2023/08/27 01:57:49;;;;;;;3.38;0.80;;;13.60;99.90;;;;;;5092555;28;20104;-77
2023/08/27 02:00:17;;;;;;;5.20;0.82;;;13.50;99.90;;;;;;5092917;28;20024;-78
2023/08/27 02:02:44;;;;;;;3.55;0.80;;;13.50;99.90;;;;;;5092405;28;20031;-79
2023/08/27 02:05:10;;;;;;;3.92;1.00;;;13.50;99.90;;;;;;5092552;28;20343;-78
2023/08/27 02:07:38;;;;;;;3.58;1.20;;;13.50;99.90;;;;;;5092697;28;20107;-77
2023/08/27 02:10:07;;;;;;;2.92;0.95;;;13.50;99.90;;;;;;5092487;28;20106;-78
2023/08/27 02:12:33;;;;;;;3.70;1.25;;;13.50;99.90;;;;;;5074404;28;20447;-78
2023/08/27 02:14:59;;;;;;;3.63;0.90;;;13.40;99.90;;;;;;5092017;28;20034;-79
2023/08/27 02:17:25;;;;;;;2.78;0.80;;;13.50;99.90;;;;;;5092470;28;20035;-78
2023/08/27 02:19:51;;;;;;;3.30;1.00;;;13.50;99.90;;;;;;5073642;28;20024;-78
2023/08/27 02:22:16;;;;;;;3.28;0.95;;;13.50;99.90;;;;;;5092145;28;20564;-78
2023/08/27 02:24:42;;;;;;;3.65;0.82;;;13.50;99.90;;;;;;5091634;28;20575;-79
2023/08/27 02:27:08;;;;;;;4.47;1.15;;;13.60;99.90;;;;;;5092306;28;20032;-78
2023/08/27 02:29:35;;;;;;;5.28;0.90;;;13.60;99.90;;;;;;5091498;28;20023;-78
2023/08/27 02:32:02;;;;;;;4.85;1.25;;;13.60;99.90;;;;;;5092391;28;20024;-78
2023/08/27 02:34:28;;;;;;;3.72;1.02;;;13.60;99.90;;;;;;5091834;28;20035;-78
2023/08/27 02:36:54;;;;;;;2.13;0.98;;;13.60;99.90;;;;;;5091357;28;20491;-78
2023/08/27 02:39:19;;;;;;;4.88;0.90;;;13.60;99.90;;;;;;5091905;28;20028;-78
2023/08/27 02:41:45;;;;;;;3.85;1.20;;;13.50;99.90;;;;;;5091599;28;20319;-79
2023/08/27 02:44:11;;;;;;;5.35;1.15;;;13.50;99.90;;;;;;5091798;28;20081;-79
2023/08/27 02:46:37;;;;;;;3.63;1.05;;;13.50;99.90;;;;;;5092379;28;20039;-78
2023/08/27 02:49:02;;;;;;;5.63;1.10;;;13.50;99.90;;;;;;5091642;28;20054;-78
2023/08/27 02:51:28;;;;;;;2.13;1.10;;;13.50;99.90;;;;;;5091979;28;20032;-79
2023/08/27 02:53:54;;;;;;;5.55;1.92;;;13.60;99.90;;;;;;5091723;28;20111;-78
2023/08/27 02:56:20;;;;;;;5.72;2.10;;;13.60;99.90;;;;;;5092077;28;20418;-78
2023/08/27 02:58:49;;;;;;;7.53;1.45;;;13.60;99.90;;;;;;5092074;28;20024;-79
2023/08/27 03:01:21;;;;;;;3.22;1.55;;;13.60;99.90;;;;;;5092265;28;20383;-77
2023/08/27 03:03:48;;;;;;;7.15;1.60;;;13.60;99.90;;;;;;5091549;28;20393;-78
2023/08/27 03:06:13;;;;;;;5.38;1.38;;;13.60;99.90;;;;;;5092074;28;20027;-77
2023/08/27 03:08:39;;;;;;;6.43;1.40;;;13.60;99.90;;;;;;5091393;28;20028;-78
2023/08/27 03:11:05;;;;;;;3.72;1.55;;;13.60;99.90;;;;;;5091467;28;20050;-78
2023/08/27 03:13:31;;;;;;;4.65;1.40;;;13.60;99.90;;;;;;5091624;28;20048;-78
2023/08/27 03:15:56;;;;;;;2.05;1.40;;;13.60;99.90;;;;;;5106578;28;20032;-78
2023/08/27 03:18:22;;;;;;;4.55;1.50;;;13.60;99.90;;;;;;5092067;28;20036;-78
2023/08/27 03:20:48;;;;;;;5.47;1.55;;;13.60;99.90;;;;;;5091151;28;20093;-78
2023/08/27 03:23:14;;;;;;;6.45;1.55;;;13.70;99.90;;;;;;5091755;28;20020;-78
2023/08/27 03:25:39;;;;;;;2.83;1.40;;;13.70;99.90;;;;;;5091407;28;20031;-79
2023/08/27 03:28:05;;;;;;;7.05;1.83;;;13.70;99.90;;;;;;5106631;28;20039;-79
2023/08/27 03:30:31;;;;;;;8.15;1.80;;;13.70;99.90;;;;;;5091455;28;20313;-78
2023/08/27 03:32:56;;;;;;;5.55;1.88;;;13.70;99.90;;;;;;5090946;28;20050;-78
2023/08/27 03:35:22;;;;;;;6.97;1.95;;;13.70;99.90;;;;;;5090926;28;20032;-78
2023/08/27 03:37:48;;;;;;;6.55;1.55;;;13.70;99.90;;;;;;5090796;28;20047;-78
2023/08/27 03:40:14;;;;;;;4.53;1.35;;;13.70;99.90;;;;;;5090007;28;20032;-78
2023/08/27 03:42:39;;;;;;;5.22;1.38;;;13.70;99.90;;;;;;5090952;28;20106;-78
2023/08/27 03:45:06;;;;;;;5.63;1.40;;;13.70;99.90;;;;;;5090745;28;20134;-77
2023/08/27 03:47:31;;;;;;;2.10;1.10;;;13.80;99.90;;;;;;5090703;28;20066;-78
2023/08/27 03:49:57;;;;;;;3.95;1.40;;;13.70;99.90;;;;;;5072106;28;20070;-77
2023/08/27 03:52:23;;;;;;;3.40;1.23;;;13.70;99.90;;;;;;5091041;28;20035;-77
2023/08/27 03:54:48;;;;;;;3.47;1.42;;;13.70;99.90;;;;;;5090196;28;20036;-78
2023/08/27 03:57:14;;;;;;;2.83;1.02;;;13.80;99.90;;;;;;5090799;28;20032;-78
2023/08/27 03:59:40;;;;;;;4.40;1.20;;;13.70;99.90;;;;;;5090860;28;20024;-78
2023/08/27 04:02:05;;;;;;;5.55;1.67;;;13.70;99.90;;;;;;5090547;28;20028;-77
2023/08/27 04:04:32;;;;;;;5.45;1.52;;;13.70;99.90;;;;;;5090656;28;20107;-78
2023/08/27 04:06:58;;;;;;;6.03;1.30;;;13.70;99.90;;;;;;5089972;28;20051;-79
2023/08/27 04:09:24;;;;;;;5.63;1.15;;;13.70;99.90;;;;;;5090409;28;20024;-79
2023/08/27 04:11:50;;;;;;;2.75;0.95;;;13.70;99.90;;;;;;5089871;28;20124;-79
2023/08/27 04:14:16;;;;;;;2.42;0.90;;;13.70;99.90;;;;;;5090444;28;20359;-79
2023/08/27 04:16:41;;;;;;;5.10;1.30;;;13.60;99.90;;;;;;5091061;28;20047;-78
2023/08/27 04:19:07;;;;;;;3.25;1.17;;;13.60;99.90;;;;;;5089715;28;20032;-79
2023/08/27 04:21:33;;;;;;;3.92;1.50;;;13.60;99.90;;;;;;5072189;28;20028;-78
2023/08/27 04:23:58;;;;;;;4.88;1.02;;;13.60;99.90;;;;;;5090401;28;20028;-78
2023/08/27 04:26:24;;;;;;;2.55;1.10;;;13.70;99.90;;;;;;5090878;28;20055;-78
2023/08/27 04:28:50;;;;;;;4.90;1.35;;;13.60;99.90;;;;;;5090092;28;20193;-78
2023/08/27 04:31:16;;;;;;;4.18;0.90;;;13.60;99.90;;;;;;5090589;28;20050;-78
2023/08/27 04:33:43;;;;;;;2.20;0.90;;;13.60;99.90;;;;;;5090611;28;20024;-78
2023/08/27 04:36:09;;;;;;;2.13;0.90;;;13.60;99.90;;;;;;5089765;28;20028;-78
2023/08/27 04:38:34;;;;;;;1.65;0.80;;;13.60;99.90;;;;;;5090336;28;20085;-77
2023/08/27 04:41:00;;;;;;;4.07;1.17;;;13.60;99.90;;;;;;5089450;28;20054;-78
2023/08/27 04:43:26;;;;;;;7.97;1.20;;;13.60;99.90;;;;;;5071899;28;20024;-78
2023/08/27 04:45:53;;;;;;;2.72;0.80;;;13.60;99.90;;;;;;5089916;28;20020;-79
2023/08/27 04:48:19;;;;;;;2.05;0.90;;;13.50;99.90;;;;;;5072621;28;20039;-78
2023/08/27 04:50:46;;;;;;;3.58;0.98;;;13.50;99.90;;;;;;5072336;28;20028;-79
2023/08/27 04:53:12;;;;;;;2.00;0.80;;;13.60;99.90;;;;;;5094151;28;20024;-79
2023/08/27 04:55:39;;;;;;;1.67;0.80;;;13.50;99.90;;;;;;5094108;28;20024;-78
2023/08/27 04:58:04;;;;;;;1.65;0.75;;;13.50;99.90;;;;;;5093689;28;20042;-78
2023/08/27 05:00:31;;;;;;;4.55;0.90;;;13.50;99.90;;;;;;5093946;28;20024;-77
2023/08/27 05:02:57;;;;;;;3.63;1.02;;;13.50;99.90;;;;;;5093653;28;20029;-78
2023/08/27 05:05:23;;;;;;;2.95;1.23;;;13.50;99.90;;;;;;5109128;28;20027;-78
2023/08/27 05:07:48;;;;;;;2.88;1.13;;;13.50;99.90;;;;;;5093886;28;20040;-79
2023/08/27 05:10:14;;;;;;;1.50;0.93;;;13.50;99.90;;;;;;5094253;28;20099;-78
2023/08/27 05:12:40;;;;;;;2.78;0.90;;;13.40;99.90;;;;;;5093522;28;20028;-78
2023/08/27 05:15:06;;;;;;;1.73;0.88;;;13.40;99.90;;;;;;5093160;28;20035;-78
2023/08/27 05:17:32;;;;;;;2.33;1.00;;;13.40;99.90;;;;;;5094059;28;20022;-79
2023/08/27 05:19:58;;;;;;;7.32;1.00;;;13.50;99.90;;;;;;5093512;28;20518;-79
2023/08/27 05:22:23;;;;;;;3.17;0.90;;;13.50;99.90;;;;;;5094464;28;20326;-78
2023/08/27 05:24:49;;;;;;;1.30;0.80;;;13.50;99.90;;;;;;5093928;28;20060;-78
2023/08/27 05:27:15;;;;;;;0.70;0.70;;;13.50;99.90;;;;;;5094131;28;20461;-78
2023/08/27 05:29:41;;;;;;;5.13;1.23;;;13.50;99.90;;;;;;5093950;28;20086;-78
2023/08/27 05:32:06;;;;;;;1.90;0.93;;;13.50;99.90;;;;;;5093364;28;20303;-77
2023/08/27 05:34:32;;;;;;;5.00;1.15;;;13.50;99.90;;;;;;5093712;28;20434;-79
2023/08/27 05:36:58;;;;;;;1.63;0.70;;;13.50;99.90;;;;;;5092855;28;20544;-78
2023/08/27 05:39:24;;;;;;;4.28;1.13;;;13.50;99.90;;;;;;5093935;28;20108;-79
2023/08/27 05:41:50;;;;;;;2.10;0.73;;;13.50;99.90;;;;;;5092816;28;20161;-77
2023/08/27 05:44:17;;;;;;;2.42;1.10;;;13.50;99.90;;;;;;5093135;28;20144;-78
2023/08/27 05:46:42;;;;;;;5.15;1.05;;;13.50;99.90;;;;;;5093816;28;20031;-78
2023/08/27 05:49:08;;;;;;;5.45;0.93;;;13.60;99.90;;;;;;5092819;28;20038;-78
2023/08/27 05:51:34;;;;;;;3.53;1.05;;;13.60;99.90;;;;;;5075055;28;20032;-78
2023/08/27 05:53:59;;;;;;;4.78;0.95;;;13.60;99.90;;;;;;5092516;28;20023;-78
2023/08/27 05:56:28;;;;;;;3.10;1.23;;;13.60;99.90;;;;;;5092988;28;20024;-78
2023/08/27 05:58:54;;;;;;;3.10;1.17;;;13.60;99.90;;;;;;5075079;28;20039;-79
2023/08/27 06:01:20;;;;;;;4.22;1.10;;;13.60;99.90;;;;;;5074771;28;20024;-79
2023/08/27 06:03:46;;;;;;;4.35;1.10;;;13.50;99.90;;;;;;5091780;28;20441;-78
2023/08/27 06:06:11;;;;;;;3.63;0.98;;;13.50;99.90;;;;;;5092109;28;20054;-77
2023/08/27 06:08:37;;;;;;;4.30;1.10;;;13.50;99.90;;;;;;5092646;28;20028;-78
2023/08/27 06:11:04;;;;;;;6.53;1.60;;;13.50;99.90;;;;;;5092328;28;20028;-77
2023/08/27 06:13:30;;;;;;;3.97;1.38;;;13.40;99.90;;;;;;5074054;28;20397;-77
2023/08/27 06:15:56;;;;;;;4.22;1.20;;;13.50;99.90;;;;;;5092094;28;20103;-78
2023/08/27 06:18:22;;;;;;;3.72;1.38;;;13.50;99.90;;;;;;5092425;28;20457;-78
2023/08/27 06:20:48;;;;;;;3.97;1.27;;;13.50;99.90;;;;;;5092409;28;20028;-77
2023/08/27 06:23:14;;;;;;;7.22;1.48;;;13.60;99.90;;;;;;5092247;28;20471;-77
2023/08/27 06:25:40;;;;;;;6.20;1.45;;;13.60;99.90;;;;;;5092481;28;20047;-77
2023/08/27 06:28:08;;;;;;;7.15;1.25;;;13.60;99.90;;;;;;5091643;28;20039;-78
2023/08/27 06:30:34;;;;;;;3.33;1.40;;;13.60;99.90;;;;;;5092835;28;20039;-77
2023/08/27 06:33:01;;;;;;;4.70;1.17;;;13.60;99.90;;;;;;5091260;28;20464;-77
2023/08/27 06:35:26;;;;;;;3.67;1.38;;;13.70;99.90;;;;;;5092495;28;20081;-77
2023/08/27 06:37:52;;;;;;;7.05;1.40;;;13.60;99.90;;;;;;5092070;28;20114;-78
2023/08/27 06:40:18;;;;;;;5.32;1.38;;;13.70;99.90;;;;;;5091635;28;20217;-78
2023/08/27 06:42:44;;;;;;;5.40;1.17;;;13.70;99.90;;;;;;5092253;28;20024;-77
2023/08/27 06:45:11;;;;;;;2.90;1.50;;;13.70;99.90;;;;;;5091125;28;20077;-78
2023/08/27 06:47:37;;;;;;;4.65;1.38;;;13.70;99.90;;;;;;5092087;28;20028;-78
2023/08/27 06:50:06;;;;;;;4.50;1.45;;;13.70;99.90;;;;;;5091177;28;20393;-77
2023/08/27 06:52:32;;;;;;;3.45;1.60;;;13.70;99.90;;;;;;5091612;28;20090;-78
2023/08/27 06:54:58;;;;;;;3.75;1.63;;;13.70;99.90;;;;;;5091055;28;20461;-79
2023/08/27 06:57:24;;;;;;;5.25;1.70;;;13.70;99.90;;;;;;5091930;28;20035;-79
2023/08/27 06:59:50;;;;;;;4.80;1.75;;;13.70;99.90;;;;;;5091924;28;20028;-79
2023/08/27 07:02:16;;;;;;;5.50;1.48;;;13.70;99.90;;;;;;5091037;28;20462;-79
2023/08/27 07:04:42;;;;;;;3.30;1.45;;;13.80;99.90;;;;;;5090933;28;20123;-79
2023/08/27 07:07:07;;;;;;;5.88;1.42;;;13.80;99.90;;;;;;5090889;28;20032;-79
2023/08/27 07:09:33;;;;;;;5.25;1.48;;;13.80;99.90;;;;;;5091501;28;20047;-78
2023/08/27 07:11:59;;;;;;;4.95;1.65;;;13.80;99.90;;;;;;5090582;28;20357;-79
2023/08/27 07:14:24;;;;;;;3.30;1.30;;;13.80;99.90;;;;;;5090386;28;20042;-78
2023/08/27 07:16:50;;;;;;;7.72;2.05;;;13.80;99.90;;;;;;5073211;28;20028;-78
2023/08/27 07:19:16;;;;;;;5.80;1.40;;;13.90;99.90;;;;;;5072492;28;20082;-78
2023/08/27 07:21:42;;;;;;;3.97;1.70;;;13.90;99.90;;;;;;5090998;28;20088;-78
2023/08/27 07:24:08;;;;;;;3.63;1.35;;;13.90;99.90;;;;;;5090466;28;20058;-78
2023/08/27 07:26:34;;;;;;;5.28;1.75;;;13.90;99.90;;;;;;5091196;28;20028;-77
2023/08/27 07:29:00;;;;;;;2.85;1.70;;;13.90;99.90;;;;;;5090420;28;20058;-77
2023/08/27 07:31:25;;;;;;;2.85;1.30;;;13.90;99.90;;;;;;5091097;28;20035;-76
2023/08/27 07:33:51;;;;;;;3.13;1.42;;;13.90;99.90;;;;;;5090962;28;20134;-76
2023/08/27 07:36:17;;;;;;;3.83;1.25;;;14.00;99.90;;;;;;5090429;28;20076;-77
2023/08/27 07:38:42;;;;;;;4.93;1.58;;;14.00;99.90;;;;;;5090816;28;20103;-76
2023/08/27 07:41:09;;;;;;;3.00;1.60;;;14.00;99.90;;;;;;5090142;28;20440;-77
2023/08/27 07:43:35;;;;;;;2.88;1.25;;;14.00;99.90;;;;;;5090301;28;20055;-78
2023/08/27 07:46:01;;;;;;;3.78;1.50;;;14.00;99.90;;;;;;5090561;28;20032;-78
2023/08/27 07:48:27;;;;;;;5.18;1.75;;;14.10;99.90;;;;;;5090702;28;20059;-78
2023/08/27 07:50:53;;;;;;;3.15;1.45;;;14.10;99.90;;;;;;5090710;28;20062;-78
2023/08/27 07:53:19;;;;;;;2.78;1.52;;;14.10;99.90;;;;;;5090074;28;20103;-78
2023/08/27 07:55:45;;;;;;;2.35;1.60;;;14.20;99.90;;;;;;5091135;28;20418;-78
2023/08/27 07:58:11;;;;;;;3.17;1.42;;;14.30;99.90;;;;;;5090068;28;20028;-78
2023/08/27 08:00:37;;;;;;;3.28;1.55;;;14.30;99.90;;;;;;5090500;28;20373;-77
2023/08/27 08:03:03;;;;;;;4.75;1.50;;;14.30;99.90;;;;;;5089747;28;20098;-78
2023/08/27 08:05:29;;;;;;;2.13;1.33;;;14.20;99.90;;;;;;5090440;28;20444;-77
2023/08/27 08:07:54;;;;;;;4.47;1.48;;;14.20;99.90;;;;;;5089978;28;20069;-77
2023/08/27 08:10:23;;;;;;;1.92;1.25;;;14.20;99.90;;;;;;5089883;28;20024;-78
2023/08/27 08:12:50;;;;;;;2.92;1.60;;;14.20;99.90;;;;;;5090313;28;20102;-78
2023/08/27 08:15:16;;;;;;;3.28;1.10;;;14.20;99.90;;;;;;5071542;28;20024;-78
2023/08/27 08:17:43;;;;;;;3.15;1.20;;;14.20;99.90;;;;;;5090239;28;20111;-78
2023/08/27 08:20:09;;;;;;;2.22;1.35;;;14.30;99.90;;;;;;5089714;28;20051;-78
2023/08/27 08:22:35;;;;;;;3.58;1.67;;;14.30;99.90;;;;;;5090474;28;20032;-77
2023/08/27 08:25:01;;;;;;;3.55;1.30;;;14.40;99.90;;;;;;5090041;28;20376;-79
2023/08/27 08:27:27;;;;;;;2.10;1.35;;;14.50;99.90;;;;;;5092495;28;20028;-78
2023/08/27 08:29:53;;;;;;;1.38;1.10;;;14.50;99.90;;;;;;5094956;28;20024;-78
2023/08/27 08:32:19;;;;;;;2.60;1.33;;;14.50;99.90;;;;;;5094517;28;20461;-78
2023/08/27 08:34:45;;;;;;;2.90;1.60;;;14.60;99.90;;;;;;5095076;28;20028;-78
2023/08/27 08:37:10;;;;;;;2.38;1.60;;;14.60;99.90;;;;;;5094423;28;20409;-77
2023/08/27 08:39:36;;;;;;;3.42;1.73;;;14.60;99.90;;;;;;5094410;28;20413;-77
2023/08/27 08:42:12;;;;;;;5.05;1.52;;;14.70;99.90;;;;;;5094369;28;20024;-78
2023/08/27 08:45:10;;;;;;;2.47;1.50;;;14.60;99.90;;;;;;5094384;28;20048;-77
2023/08/27 08:47:36;;;;;;;1.95;1.70;;;14.70;99.90;;;;;;5094364;28;20484;-76
2023/08/27 08:50:06;;;;;;;2.05;1.80;;;14.70;99.90;;;;;;5094061;28;20028;-77
2023/08/27 08:52:38;;;;;;;3.97;2.92;;;14.70;99.90;;;;;;5094194;28;20398;-77
2023/08/27 08:55:10;;;;;;;4.10;3.70;;;14.80;99.90;;;;;;5094183;28;20032;-78
2023/08/27 08:58:03;;;;;;;3.85;3.33;;;14.80;99.90;;;;;;5094666;28;20034;-78
2023/08/27 09:00:29;;;;;;;4.10;3.15;;;14.80;99.90;;;;;;5094628;28;20054;-78
2023/08/27 09:03:00;;;;;;;3.53;3.22;;;14.80;99.90;;;;;;5094273;28;20156;-78
2023/08/27 09:05:28;;;;;;;3.00;2.70;;;14.70;99.90;;;;;;5093435;28;20020;-79
2023/08/27 09:07:54;;;;;;;3.45;2.95;;;14.60;99.90;;;;;;5093629;28;20036;-77
2023/08/27 09:10:20;;;;;;;3.40;3.00;;;14.60;99.90;;;;;;5093227;28;20449;-78
2023/08/27 09:12:47;;;;;;;2.70;2.47;;;14.60;99.90;;;;;;5075484;28;20028;-78
2023/08/27 09:15:12;;;;;;;3.10;2.80;;;14.60;99.90;;;;;;5075085;28;20028;-76
2023/08/27 09:17:38;;;;;;;3.13;2.83;;;14.50;99.90;;;;;;5093196;28;20497;-76
2023/08/27 09:20:05;;;;;;;4.82;3.50;;;14.60;99.90;;;;;;5093668;28;20024;-77
2023/08/27 09:22:34;;;;;;;3.92;3.33;;;14.50;99.90;;;;;;5093638;28;20055;-76
2023/08/27 09:25:00;;;;;;;4.05;3.17;;;14.50;99.90;;;;;;5093164;28;20060;-76
2023/08/27 09:27:26;;;;;;;4.03;3.70;;;14.60;99.90;;;;;;5093361;28;20078;-77
2023/08/27 09:29:54;;;;;;;5.05;3.78;;;14.60;99.90;;;;;;5075401;28;20056;-78
2023/08/27 09:32:24;;;;;;;3.95;3.60;;;14.50;99.90;;;;;;5092643;28;20106;-77
2023/08/27 09:34:56;;;;;;;3.63;3.20;;;14.50;99.90;;;;;;5093447;28;20099;-77
2023/08/27 09:37:22;;;;;;;;;;;14.60;99.90;;;;;;5093519;28;20114;-77
2023/08/27 09:39:49;;;;;;;4.18;3.47;;;14.60;99.90;;;;;;5093946;28;19954;-77
2023/08/27 09:42:16;;;;;;;4.50;3.40;;;14.70;99.90;;;;;;5092984;28;20105;-77
2023/08/27 09:44:54;;;;;;;3.75;3.20;;;14.80;99.90;;;;;;5092871;28;20048;-77
2023/08/27 09:47:30;;;;;;;4.07;3.03;;;14.90;99.90;;;;;;5092756;28;20109;-77
2023/08/27 09:49:56;;;;;;;3.28;3.05;;;14.80;99.90;;;;;;5093194;28;20023;-76
2023/08/27 09:52:24;;;;;;;2.85;2.60;;;14.90;99.90;;;;;;5091958;28;20336;-78
2023/08/27 09:54:51;;;;;;;3.30;3.00;;;15.00;99.90;;;;;;5093295;28;20020;-78
2023/08/27 09:57:18;;;;;;;2.92;2.60;;;15.10;99.90;;;;;;5092801;28;20043;-78
2023/08/27 09:59:44;;;;;;;2.30;2.10;;;15.00;99.90;;;;;;5093218;28;20132;-78
2023/08/27 10:02:14;;;;;;;2.17;1.98;;;14.90;99.90;;;;;;5092519;28;20107;-79
2023/08/27 10:04:59;;;;;;;2.20;1.85;;;14.90;99.90;;;;;;5093304;28;20028;-78
2023/08/27 10:07:24;;;;;;;1.98;1.55;;;15.10;99.90;;;;;;5074461;28;20040;-79
2023/08/27 10:09:52;;;;;;;3.05;2.10;;;15.10;99.90;;;;;;5093626;28;20039;-78
2023/08/27 10:12:19;;;;;;;3.63;2.28;;;15.20;99.90;;;;;;5092310;28;20024;-78
2023/08/27 10:14:46;;;;;;;2.55;2.35;;;15.30;99.90;;;;;;5092809;28;20078;-78
2023/08/27 10:17:13;;;;;;;3.10;2.35;;;15.30;99.90;;;;;;5091800;28;20028;-78
2023/08/27 10:19:39;;;;;;;2.08;1.75;;;15.30;99.90;;;;;;5092835;28;20028;-78
2023/08/27 10:22:05;;;;;;;1.95;1.75;;;15.30;99.90;;;;;;5092357;28;20036;-78
2023/08/27 10:24:32;;;;;;;3.97;1.80;;;15.40;99.90;;;;;;5091872;28;20381;-78
2023/08/27 10:26:59;;;;;;;1.98;1.50;;;15.50;99.90;;;;;;5074686;28;20093;-78
2023/08/27 10:29:26;;;;;;;3.28;1.70;;;15.50;99.90;;;;;;5092220;28;20032;-78
2023/08/27 10:31:53;;;;;;;2.22;1.02;;;15.50;99.90;;;;;;5092665;28;20020;-78
2023/08/27 10:34:22;;;;;;;2.80;1.30;;;15.50;99.90;;;;;;5092015;28;20066;-79
2023/08/27 10:36:51;;;;;;;2.03;1.50;;;15.40;99.90;;;;;;5092465;28;20032;-78
2023/08/27 10:39:25;;;;;;;3.42;1.55;;;15.50;99.90;;;;;;5090943;28;20028;-79
2023/08/27 10:41:51;;;;;;;3.28;1.98;;;15.50;99.90;;;;;;5092135;28;20036;-79
2023/08/27 10:44:20;;;;;;;2.85;1.30;;;15.60;99.90;;;;;;5091375;28;20079;-79
2023/08/27 10:47:13;;;;;;;3.22;1.88;;;15.50;99.90;;;;;;5092106;28;20108;-79
2023/08/27 10:49:44;;;;;;;3.33;1.60;;;15.60;99.90;;;;;;5091339;28;20032;-79
2023/08/27 10:52:22;;;;;;;2.10;1.20;;;15.60;99.90;;;;;;5094590;28;20024;-79
2023/08/27 10:55:01;;;;;;;2.10;1.10;;;15.60;99.90;;;;;;5073476;28;20035;-79
2023/08/27 10:57:27;;;;;;;3.42;1.50;;;15.60;99.90;;;;;;5091380;28;20050;-79
2023/08/27 11:00:10;;;;;;;2.88;1.75;;;15.50;99.90;;;;;;5091928;28;20084;-79
2023/08/27 11:03:12;;;;;;;1.48;1.30;;;15.50;99.90;;;;;;5073017;28;20039;-79
2023/08/27 11:05:38;;;;;;;1.50;1.40;;;15.50;99.90;;;;;;5056978;28;20442;-79
2023/08/27 11:08:16;;;;;;;1.75;1.20;;;15.70;99.90;;;;;;5091139;28;20036;-79
2023/08/27 11:10:42;;;;;;;1.20;1.10;;;15.90;99.90;;;;;;5074086;28;20020;-79
2023/08/27 11:13:37;;;;;;;1.33;1.10;;;16.10;99.90;;;;;;5091200;28;20362;-79
2023/08/27 11:16:14;;;;;;;1.17;0.98;;;16.30;99.90;;;;;;5091680;28;20032;-79
2023/08/27 11:18:48;;;;;;;2.38;0.90;;;16.40;99.90;;;;;;5072996;28;20119;-79
2023/08/27 11:21:26;;;;;;;1.95;0.60;;;16.50;99.90;;;;;;5072687;28;20025;-79
2023/08/27 11:24:10;;;;;;;1.25;0.80;;;16.50;99.90;;;;;;5090744;28;20024;-79
2023/08/27 11:26:37;;;;;;;1.00;0.60;;;16.50;99.90;;;;;;5090362;28;20530;-78
2023/08/27 11:29:03;;;;;;;0.63;0.57;;;16.40;99.90;;;;;;5091250;28;20021;-78
2023/08/27 11:31:32;;;;;;;0.25;0.25;;;16.50;99.90;;;;;;5091027;28;20059;-78
2023/08/27 11:33:58;;;;;;;0.30;0.30;;;16.50;99.90;;;;;;5091458;28;20107;-78
2023/08/27 11:36:24;;;;;;;0.60;0.60;;;16.50;99.90;;;;;;5072399;28;20055;-78
2023/08/27 11:38:49;;;;;;;1.05;0.52;;;16.70;99.90;;;;;;5091056;28;20024;-79
2023/08/27 11:41:15;;;;;;;1.13;0.60;;;16.80;99.90;;;;;;5090658;28;20098;-79
2023/08/27 11:43:41;;;;;;;0.50;0.40;;;16.80;99.90;;;;;;5090939;28;20085;-77
2023/08/27 11:46:20;;;;;;;1.20;0.47;;;16.80;99.90;;;;;;5073291;28;20404;-77
2023/08/27 11:48:48;;;;;;;0.60;0.40;;;16.70;99.90;;;;;;5090603;28;20028;-77
2023/08/27 11:51:17;;;;;;;0.75;0.60;;;16.90;99.90;;;;;;5090610;28;20326;-77
2023/08/27 11:53:44;;;;;;;1.17;0.75;;;17.10;99.90;;;;;;5090297;28;20406;-77
2023/08/27 11:56:12;;;;;;;0.47;0.47;;;17.00;99.90;;;;;;5071753;28;20372;-78
2023/08/27 11:58:41;;;;;;;0.50;0.50;;;16.90;99.90;;;;;;5089799;28;20390;-78
2023/08/27 12:01:10;;;;;;;0.43;0.43;;;17.00;99.90;;;;;;5089834;28;20408;-78
2023/08/27 12:03:40;;;;;;;0.55;0.55;;;17.10;99.90;;;;;;5090064;28;20773;-79
2023/08/27 12:06:06;;;;;;;0.55;0.40;;;17.10;99.90;;;;;;5091010;28;20028;-78
2023/08/27 12:08:35;;;;;;;0.38;0.20;;;17.10;99.90;;;;;;5089791;28;20059;-78
2023/08/27 12:11:02;;;;;;;0.80;0.60;;;17.10;99.90;;;;;;5072664;28;20493;-78
2023/08/27 12:13:28;;;;;;;0.60;0.40;;;17.10;99.90;;;;;;5071314;28;20051;-77
2023/08/27 12:15:54;;;;;;;0.20;0.20;;;17.30;99.90;;;;;;5090289;28;20484;-79
2023/08/27 12:18:20;;;;;;;0.35;0.30;;;17.30;99.90;;;;;;5089654;28;20024;-78
2023/08/27 12:20:49;;;;;;;1.00;0.63;;;17.40;99.90;;;;;;5090692;28;20054;-79
2023/08/27 12:23:16;;;;;;;0.40;0.40;;;17.40;99.90;;;;;;5090726;28;20111;-78
2023/08/27 12:25:46;;;;;;;1.83;1.40;;;17.40;99.90;;;;;;5090990;28;20030;-78
2023/08/27 12:28:11;;;;;;;2.35;1.70;;;17.30;99.90;;;;;;5090641;28;20055;-78
2023/08/27 12:30:37;;;;;;;2.03;1.10;;;17.30;99.90;;;;;;5089816;28;20739;-78
2023/08/27 12:33:04;;;;;;;1.02;0.90;;;17.20;99.90;;;;;;5090550;28;20028;-78
2023/08/27 12:35:30;;;;;;;0.30;0.30;;;17.20;99.90;;;;;;5090136;28;20024;-78
2023/08/27 12:37:56;;;;;;;0.20;0.20;;;17.00;99.90;;;;;;5090487;28;20362;-80
2023/08/27 12:40:21;;;;;;;0.20;0.20;;;17.10;99.90;;;;;;5089844;28;20157;-79
2023/08/27 12:42:47;;;;;;;1.20;0.60;;;17.30;99.90;;;;;;5072196;28;20411;-79
2023/08/27 12:45:13;;;;;;;0.70;0.40;;;17.40;99.90;;;;;;5090751;28;20131;-79
2023/08/27 12:47:39;;;;;;;0.40;0.35;;;17.50;99.90;;;;;;5090038;28;20139;-79
2023/08/27 12:50:05;;;;;;;0.40;0.32;;;17.50;99.90;;;;;;5090014;28;20020;-78